sensor_id;sensor_type;location;lat;lon;timestamp;P1;durP1;ratioP1;P2;durP2;ratioP2
17365;SDS011;8800;50.118;9.900;2022-12-18T00:01:47;38.22;;;12.43;;
17365;SDS011;8800;50.118;9.900;2022-12-18T00:04:15;32.53;;;12.35;;
17365;SDS011;8800;50.118;9.900;2022-12-18T00:06:44;34.38;;;12.05;;
17365;SDS011;8800;50.118;9.900;2022-12-18T00:09:10;30.00;;;10.48;;
17365;SDS011;8800;50.118;9.900;2022-12-18T00:11:38;35.95;;;11.73;;
17365;SDS011;8800;50.118;9.900;2022-12-18T00:14:04;31.65;;;9.85;;
17365;SDS011;8800;50.118;9.900;2022-12-18T00:16:31;26.95;;;10.32;;
17365;SDS011;8800;50.118;9.900;2022-12-18T00:19:00;29.05;;;9.30;;
17365;SDS011;8800;50.118;9.900;2022-12-18T00:21:27;36.75;;;11.52;;
17365;SDS011;8800;50.118;9.900;2022-12-18T00:23:53;37.47;;;11.75;;
17365;SDS011;8800;50.118;9.900;2022-12-18T00:26:20;33.70;;;10.10;;
17365;SDS011;8800;50.118;9.900;2022-12-18T00:28:49;31.10;;;10.65;;
17365;SDS011;8800;50.118;9.900;2022-12-18T00:31:17;29.40;;;10.05;;
17365;SDS011;8800;50.118;9.900;2022-12-18T00:33:44;32.83;;;10.10;;
17365;SDS011;8800;50.118;9.900;2022-12-18T00:36:16;33.22;;;9.93;;
17365;SDS011;8800;50.118;9.900;2022-12-18T00:38:43;36.92;;;10.90;;
17365;SDS011;8800;50.118;9.900;2022-12-18T00:41:11;26.08;;;10.48;;
17365;SDS011;8800;50.118;9.900;2022-12-18T00:43:38;32.38;;;9.43;;
17365;SDS011;8800;50.118;9.900;2022-12-18T00:46:05;32.55;;;10.38;;
17365;SDS011;8800;50.118;9.900;2022-12-18T00:48:32;32.25;;;9.70;;
17365;SDS011;8800;50.118;9.900;2022-12-18T00:50:58;31.02;;;10.27;;
17365;SDS011;8800;50.118;9.900;2022-12-18T00:53:24;35.72;;;11.52;;
17365;SDS011;8800;50.118;9.900;2022-12-18T00:55:51;35.25;;;10.77;;
17365;SDS011;8800;50.118;9.900;2022-12-18T00:58:17;30.98;;;12.13;;
17365;SDS011;8800;50.118;9.900;2022-12-18T01:00:44;27.95;;;9.90;;
17365;SDS011;8800;50.118;9.900;2022-12-18T01:03:12;35.53;;;10.23;;
17365;SDS011;8800;50.118;9.900;2022-12-18T01:05:39;34.45;;;11.15;;
17365;SDS011;8800;50.118;9.900;2022-12-18T01:08:06;28.30;;;9.93;;
17365;SDS011;8800;50.118;9.900;2022-12-18T01:10:32;31.92;;;11.77;;
17365;SDS011;8800;50.118;9.900;2022-12-18T01:12:59;29.08;;;9.18;;
17365;SDS011;8800;50.118;9.900;2022-12-18T01:15:25;31.92;;;9.15;;
17365;SDS011;8800;50.118;9.900;2022-12-18T01:17:52;33.47;;;11.77;;
17365;SDS011;8800;50.118;9.900;2022-12-18T01:20:19;32.90;;;10.05;;
17365;SDS011;8800;50.118;9.900;2022-12-18T01:22:46;38.72;;;11.25;;
17365;SDS011;8800;50.118;9.900;2022-12-18T01:25:12;31.08;;;10.15;;
17365;SDS011;8800;50.118;9.900;2022-12-18T01:27:39;35.42;;;11.02;;
17365;SDS011;8800;50.118;9.900;2022-12-18T01:30:06;36.53;;;11.88;;
17365;SDS011;8800;50.118;9.900;2022-12-18T01:32:32;32.78;;;11.60;;
17365;SDS011;8800;50.118;9.900;2022-12-18T01:34:59;26.48;;;9.75;;
17365;SDS011;8800;50.118;9.900;2022-12-18T01:37:26;31.13;;;10.85;;
17365;SDS011;8800;50.118;9.900;2022-12-18T01:39:53;29.70;;;9.80;;
17365;SDS011;8800;50.118;9.900;2022-12-18T01:42:20;29.17;;;9.20;;
17365;SDS011;8800;50.118;9.900;2022-12-18T01:44:52;25.95;;;7.95;;
17365;SDS011;8800;50.118;9.900;2022-12-18T01:47:21;30.35;;;9.27;;
17365;SDS011;8800;50.118;9.900;2022-12-18T01:49:49;28.67;;;8.93;;
17365;SDS011;8800;50.118;9.900;2022-12-18T01:52:18;31.38;;;9.35;;
17365;SDS011;8800;50.118;9.900;2022-12-18T01:54:47;27.23;;;9.88;;
17365;SDS011;8800;50.118;9.900;2022-12-18T01:57:14;31.55;;;10.38;;
17365;SDS011;8800;50.118;9.900;2022-12-18T01:59:41;29.27;;;9.48;;
17365;SDS011;8800;50.118;9.900;2022-12-18T02:02:08;33.00;;;10.55;;
17365;SDS011;8800;50.118;9.900;2022-12-18T02:04:35;32.63;;;8.75;;
17365;SDS011;8800;50.118;9.900;2022-12-18T02:07:02;23.92;;;8.15;;
17365;SDS011;8800;50.118;9.900;2022-12-18T02:09:34;28.50;;;9.23;;
17365;SDS011;8800;50.118;9.900;2022-12-18T02:12:04;29.83;;;11.10;;
17365;SDS011;8800;50.118;9.900;2022-12-18T02:14:34;22.13;;;8.25;;
17365;SDS011;8800;50.118;9.900;2022-12-18T02:17:05;23.33;;;8.38;;
17365;SDS011;8800;50.118;9.900;2022-12-18T02:19:39;24.48;;;9.27;;
17365;SDS011;8800;50.118;9.900;2022-12-18T02:22:12;21.73;;;8.15;;
17365;SDS011;8800;50.118;9.900;2022-12-18T02:24:41;27.70;;;8.82;;
17365;SDS011;8800;50.118;9.900;2022-12-18T02:27:12;28.17;;;8.70;;
17365;SDS011;8800;50.118;9.900;2022-12-18T02:29:40;32.88;;;10.60;;
17365;SDS011;8800;50.118;9.900;2022-12-18T02:32:10;29.90;;;9.73;;
17365;SDS011;8800;50.118;9.900;2022-12-18T02:34:39;30.63;;;9.65;;
17365;SDS011;8800;50.118;9.900;2022-12-18T02:37:07;37.90;;;10.57;;
17365;SDS011;8800;50.118;9.900;2022-12-18T02:39:35;27.35;;;8.40;;
17365;SDS011;8800;50.118;9.900;2022-12-18T02:42:03;37.08;;;11.20;;
17365;SDS011;8800;50.118;9.900;2022-12-18T02:44:34;35.35;;;10.27;;
17365;SDS011;8800;50.118;9.900;2022-12-18T02:47:01;29.77;;;10.68;;
17365;SDS011;8800;50.118;9.900;2022-12-18T02:49:30;40.35;;;11.50;;
17365;SDS011;8800;50.118;9.900;2022-12-18T02:52:01;35.83;;;10.20;;
17365;SDS011;8800;50.118;9.900;2022-12-18T02:54:36;27.67;;;9.40;;
17365;SDS011;8800;50.118;9.900;2022-12-18T02:57:05;26.45;;;8.18;;
17365;SDS011;8800;50.118;9.900;2022-12-18T02:59:36;33.10;;;10.75;;
17365;SDS011;8800;50.118;9.900;2022-12-18T03:02:07;29.70;;;9.90;;
17365;SDS011;8800;50.118;9.900;2022-12-18T03:04:36;24.65;;;7.85;;
17365;SDS011;8800;50.118;9.900;2022-12-18T03:07:05;26.20;;;7.38;;
17365;SDS011;8800;50.118;9.900;2022-12-18T03:09:34;25.83;;;8.65;;
17365;SDS011;8800;50.118;9.900;2022-12-18T03:12:02;19.80;;;8.35;;
17365;SDS011;8800;50.118;9.900;2022-12-18T03:14:50;20.70;;;7.55;;
17365;SDS011;8800;50.118;9.900;2022-12-18T03:17:18;20.90;;;7.18;;
17365;SDS011;8800;50.118;9.900;2022-12-18T03:19:46;22.20;;;7.35;;
17365;SDS011;8800;50.118;9.900;2022-12-18T03:22:13;21.80;;;7.80;;
17365;SDS011;8800;50.118;9.900;2022-12-18T03:24:41;21.85;;;7.10;;
17365;SDS011;8800;50.118;9.900;2022-12-18T03:27:09;25.58;;;7.85;;
17365;SDS011;8800;50.118;9.900;2022-12-18T03:29:38;25.88;;;7.78;;
17365;SDS011;8800;50.118;9.900;2022-12-18T03:32:07;24.20;;;7.85;;
17365;SDS011;8800;50.118;9.900;2022-12-18T03:34:36;26.08;;;7.40;;
17365;SDS011;8800;50.118;9.900;2022-12-18T03:37:04;23.45;;;7.47;;
17365;SDS011;8800;50.118;9.900;2022-12-18T03:39:30;20.48;;;7.00;;
17365;SDS011;8800;50.118;9.900;2022-12-18T03:41:58;24.40;;;7.88;;
17365;SDS011;8800;50.118;9.900;2022-12-18T03:44:27;21.65;;;7.18;;
17365;SDS011;8800;50.118;9.900;2022-12-18T03:46:56;24.25;;;7.25;;
17365;SDS011;8800;50.118;9.900;2022-12-18T03:49:28;19.95;;;7.00;;
17365;SDS011;8800;50.118;9.900;2022-12-18T03:51:59;29.73;;;8.55;;
17365;SDS011;8800;50.118;9.900;2022-12-18T03:54:28;20.33;;;7.20;;
17365;SDS011;8800;50.118;9.900;2022-12-18T03:56:57;22.38;;;8.13;;
17365;SDS011;8800;50.118;9.900;2022-12-18T03:59:24;27.40;;;8.00;;
17365;SDS011;8800;50.118;9.900;2022-12-18T04:01:51;21.92;;;6.82;;
17365;SDS011;8800;50.118;9.900;2022-12-18T04:04:18;28.65;;;8.48;;
17365;SDS011;8800;50.118;9.900;2022-12-18T04:06:47;26.48;;;7.88;;
17365;SDS011;8800;50.118;9.900;2022-12-18T04:09:15;23.50;;;7.88;;
17365;SDS011;8800;50.118;9.900;2022-12-18T04:11:42;25.80;;;8.45;;
17365;SDS011;8800;50.118;9.900;2022-12-18T04:14:09;17.50;;;6.25;;
17365;SDS011;8800;50.118;9.900;2022-12-18T04:16:36;21.98;;;7.47;;
17365;SDS011;8800;50.118;9.900;2022-12-18T04:19:02;18.60;;;7.30;;
17365;SDS011;8800;50.118;9.900;2022-12-18T04:21:28;23.13;;;7.97;;
17365;SDS011;8800;50.118;9.900;2022-12-18T04:23:56;21.65;;;7.20;;
17365;SDS011;8800;50.118;9.900;2022-12-18T04:26:23;23.27;;;7.15;;
17365;SDS011;8800;50.118;9.900;2022-12-18T04:28:49;29.13;;;8.82;;
17365;SDS011;8800;50.118;9.900;2022-12-18T04:31:15;25.35;;;8.48;;
17365;SDS011;8800;50.118;9.900;2022-12-18T04:33:42;18.40;;;6.45;;
17365;SDS011;8800;50.118;9.900;2022-12-18T04:36:08;23.90;;;8.02;;
17365;SDS011;8800;50.118;9.900;2022-12-18T04:38:34;23.35;;;7.50;;
17365;SDS011;8800;50.118;9.900;2022-12-18T04:41:02;28.65;;;9.07;;
17365;SDS011;8800;50.118;9.900;2022-12-18T04:43:29;22.25;;;6.80;;
17365;SDS011;8800;50.118;9.900;2022-12-18T04:46:00;29.35;;;8.43;;
17365;SDS011;8800;50.118;9.900;2022-12-18T04:48:27;22.35;;;7.70;;
17365;SDS011;8800;50.118;9.900;2022-12-18T04:50:53;22.42;;;6.85;;
17365;SDS011;8800;50.118;9.900;2022-12-18T04:53:19;25.63;;;9.15;;
17365;SDS011;8800;50.118;9.900;2022-12-18T04:55:46;27.00;;;9.27;;
17365;SDS011;8800;50.118;9.900;2022-12-18T04:58:14;28.90;;;7.60;;
17365;SDS011;8800;50.118;9.900;2022-12-18T05:00:40;21.13;;;7.00;;
17365;SDS011;8800;50.118;9.900;2022-12-18T05:03:06;18.05;;;5.85;;
17365;SDS011;8800;50.118;9.900;2022-12-18T05:05:34;21.48;;;6.35;;
17365;SDS011;8800;50.118;9.900;2022-12-18T05:08:00;21.27;;;7.05;;
17365;SDS011;8800;50.118;9.900;2022-12-18T05:10:27;25.88;;;7.78;;
17365;SDS011;8800;50.118;9.900;2022-12-18T05:12:53;20.50;;;6.43;;
17365;SDS011;8800;50.118;9.900;2022-12-18T05:15:28;18.13;;;6.78;;
17365;SDS011;8800;50.118;9.900;2022-12-18T05:17:54;23.45;;;7.25;;
17365;SDS011;8800;50.118;9.900;2022-12-18T05:20:21;17.40;;;6.68;;
17365;SDS011;8800;50.118;9.900;2022-12-18T05:22:47;20.90;;;7.32;;
17365;SDS011;8800;50.118;9.900;2022-12-18T05:25:13;17.05;;;6.13;;
17365;SDS011;8800;50.118;9.900;2022-12-18T05:27:40;20.10;;;6.80;;
17365;SDS011;8800;50.118;9.900;2022-12-18T05:30:07;15.52;;;5.78;;
17365;SDS011;8800;50.118;9.900;2022-12-18T05:32:35;24.80;;;7.10;;
17365;SDS011;8800;50.118;9.900;2022-12-18T05:35:01;16.55;;;6.30;;
17365;SDS011;8800;50.118;9.900;2022-12-18T05:37:28;20.13;;;6.28;;
17365;SDS011;8800;50.118;9.900;2022-12-18T05:39:54;24.77;;;7.03;;
17365;SDS011;8800;50.118;9.900;2022-12-18T05:42:21;23.13;;;8.05;;
17365;SDS011;8800;50.118;9.900;2022-12-18T05:44:47;28.33;;;8.52;;
17365;SDS011;8800;50.118;9.900;2022-12-18T05:47:13;29.77;;;8.82;;
17365;SDS011;8800;50.118;9.900;2022-12-18T05:49:41;24.35;;;8.27;;
17365;SDS011;8800;50.118;9.900;2022-12-18T05:52:08;30.25;;;9.02;;
17365;SDS011;8800;50.118;9.900;2022-12-18T05:54:34;16.27;;;6.63;;
17365;SDS011;8800;50.118;9.900;2022-12-18T05:57:01;24.33;;;8.73;;
17365;SDS011;8800;50.118;9.900;2022-12-18T05:59:27;20.80;;;6.80;;
17365;SDS011;8800;50.118;9.900;2022-12-18T06:01:53;23.88;;;6.72;;
17365;SDS011;8800;50.118;9.900;2022-12-18T06:04:20;19.45;;;7.57;;
17365;SDS011;8800;50.118;9.900;2022-12-18T06:06:48;18.58;;;7.53;;
17365;SDS011;8800;50.118;9.900;2022-12-18T06:09:14;17.92;;;6.75;;
17365;SDS011;8800;50.118;9.900;2022-12-18T06:11:40;26.98;;;8.57;;
17365;SDS011;8800;50.118;9.900;2022-12-18T06:14:07;21.77;;;7.70;;
17365;SDS011;8800;50.118;9.900;2022-12-18T06:16:33;19.98;;;6.93;;
17365;SDS011;8800;50.118;9.900;2022-12-18T06:19:00;22.80;;;7.75;;
17365;SDS011;8800;50.118;9.900;2022-12-18T06:21:26;19.80;;;6.78;;
17365;SDS011;8800;50.118;9.900;2022-12-18T06:23:54;16.40;;;6.63;;
17365;SDS011;8800;50.118;9.900;2022-12-18T06:26:21;18.88;;;6.82;;
17365;SDS011;8800;50.118;9.900;2022-12-18T06:28:47;25.52;;;6.80;;
17365;SDS011;8800;50.118;9.900;2022-12-18T06:31:13;24.13;;;7.47;;
17365;SDS011;8800;50.118;9.900;2022-12-18T06:33:40;15.68;;;5.57;;
17365;SDS011;8800;50.118;9.900;2022-12-18T06:36:07;20.88;;;6.72;;
17365;SDS011;8800;50.118;9.900;2022-12-18T06:38:35;21.77;;;7.18;;
17365;SDS011;8800;50.118;9.900;2022-12-18T06:41:07;23.83;;;7.28;;
17365;SDS011;8800;50.118;9.900;2022-12-18T06:43:33;21.05;;;7.82;;
17365;SDS011;8800;50.118;9.900;2022-12-18T06:46:00;16.75;;;5.60;;
17365;SDS011;8800;50.118;9.900;2022-12-18T06:48:26;27.55;;;7.85;;
17365;SDS011;8800;50.118;9.900;2022-12-18T06:50:53;24.30;;;7.45;;
17365;SDS011;8800;50.118;9.900;2022-12-18T06:53:19;24.83;;;7.43;;
17365;SDS011;8800;50.118;9.900;2022-12-18T06:55:46;19.13;;;5.90;;
17365;SDS011;8800;50.118;9.900;2022-12-18T06:58:13;22.15;;;6.72;;
17365;SDS011;8800;50.118;9.900;2022-12-18T07:00:40;21.77;;;7.88;;
17365;SDS011;8800;50.118;9.900;2022-12-18T07:03:06;17.98;;;6.57;;
17365;SDS011;8800;50.118;9.900;2022-12-18T07:05:32;22.10;;;7.47;;
17365;SDS011;8800;50.118;9.900;2022-12-18T07:07:59;17.17;;;6.55;;
17365;SDS011;8800;50.118;9.900;2022-12-18T07:10:25;20.33;;;6.63;;
17365;SDS011;8800;50.118;9.900;2022-12-18T07:12:52;22.05;;;7.35;;
17365;SDS011;8800;50.118;9.900;2022-12-18T07:15:19;40.35;;;10.40;;
17365;SDS011;8800;50.118;9.900;2022-12-18T07:17:46;31.33;;;8.80;;
17365;SDS011;8800;50.118;9.900;2022-12-18T07:20:12;20.20;;;7.85;;
17365;SDS011;8800;50.118;9.900;2022-12-18T07:22:39;26.08;;;7.28;;
17365;SDS011;8800;50.118;9.900;2022-12-18T07:25:06;22.63;;;7.72;;
17365;SDS011;8800;50.118;9.900;2022-12-18T07:27:32;26.88;;;7.97;;
17365;SDS011;8800;50.118;9.900;2022-12-18T07:29:59;26.02;;;8.15;;
17365;SDS011;8800;50.118;9.900;2022-12-18T07:32:26;27.40;;;8.10;;
17365;SDS011;8800;50.118;9.900;2022-12-18T07:34:53;21.90;;;7.95;;
17365;SDS011;8800;50.118;9.900;2022-12-18T07:37:19;23.98;;;8.48;;
17365;SDS011;8800;50.118;9.900;2022-12-18T07:39:46;29.83;;;8.82;;
17365;SDS011;8800;50.118;9.900;2022-12-18T07:42:12;27.05;;;8.43;;
17365;SDS011;8800;50.118;9.900;2022-12-18T07:44:56;33.55;;;10.23;;
17365;SDS011;8800;50.118;9.900;2022-12-18T07:47:23;34.17;;;10.55;;
17365;SDS011;8800;50.118;9.900;2022-12-18T07:49:52;28.08;;;9.25;;
17365;SDS011;8800;50.118;9.900;2022-12-18T07:52:18;27.33;;;9.02;;
17365;SDS011;8800;50.118;9.900;2022-12-18T07:54:45;27.05;;;8.93;;
17365;SDS011;8800;50.118;9.900;2022-12-18T07:57:14;21.70;;;7.32;;
17365;SDS011;8800;50.118;9.900;2022-12-18T07:59:41;25.58;;;9.00;;
17365;SDS011;8800;50.118;9.900;2022-12-18T08:02:07;23.00;;;8.10;;
17365;SDS011;8800;50.118;9.900;2022-12-18T08:04:34;17.70;;;6.10;;
17365;SDS011;8800;50.118;9.900;2022-12-18T08:07:04;16.90;;;6.05;;
17365;SDS011;8800;50.118;9.900;2022-12-18T08:09:31;28.00;;;8.55;;
17365;SDS011;8800;50.118;9.900;2022-12-18T08:11:58;32.65;;;9.00;;
17365;SDS011;8800;50.118;9.900;2022-12-18T08:14:25;26.40;;;9.13;;
17365;SDS011;8800;50.118;9.900;2022-12-18T08:16:52;31.80;;;10.23;;
17365;SDS011;8800;50.118;9.900;2022-12-18T08:19:20;22.38;;;8.00;;
17365;SDS011;8800;50.118;9.900;2022-12-18T08:21:47;26.95;;;9.13;;
17365;SDS011;8800;50.118;9.900;2022-12-18T08:24:15;25.48;;;8.50;;
17365;SDS011;8800;50.118;9.900;2022-12-18T08:26:42;23.63;;;8.60;;
17365;SDS011;8800;50.118;9.900;2022-12-18T08:29:09;27.23;;;9.23;;
17365;SDS011;8800;50.118;9.900;2022-12-18T08:31:36;22.83;;;7.93;;
17365;SDS011;8800;50.118;9.900;2022-12-18T08:34:02;27.90;;;8.63;;
17365;SDS011;8800;50.118;9.900;2022-12-18T08:36:30;27.23;;;7.47;;
17365;SDS011;8800;50.118;9.900;2022-12-18T08:38:57;28.48;;;8.35;;
17365;SDS011;8800;50.118;9.900;2022-12-18T08:41:25;24.77;;;8.95;;
17365;SDS011;8800;50.118;9.900;2022-12-18T08:43:51;24.63;;;8.52;;
17365;SDS011;8800;50.118;9.900;2022-12-18T08:46:36;17.75;;;6.47;;
17365;SDS011;8800;50.118;9.900;2022-12-18T08:49:04;29.38;;;9.48;;
17365;SDS011;8800;50.118;9.900;2022-12-18T08:51:31;23.58;;;8.68;;
17365;SDS011;8800;50.118;9.900;2022-12-18T08:53:57;33.40;;;9.55;;
17365;SDS011;8800;50.118;9.900;2022-12-18T08:56:26;29.65;;;9.07;;
17365;SDS011;8800;50.118;9.900;2022-12-18T08:58:52;25.33;;;9.27;;
17365;SDS011;8800;50.118;9.900;2022-12-18T09:01:19;28.15;;;9.73;;
17365;SDS011;8800;50.118;9.900;2022-12-18T09:03:46;28.25;;;9.60;;
17365;SDS011;8800;50.118;9.900;2022-12-18T09:06:13;32.40;;;9.63;;
17365;SDS011;8800;50.118;9.900;2022-12-18T09:08:40;38.72;;;11.27;;
17365;SDS011;8800;50.118;9.900;2022-12-18T09:11:10;29.27;;;8.82;;
17365;SDS011;8800;50.118;9.900;2022-12-18T09:13:40;30.45;;;9.70;;
17365;SDS011;8800;50.118;9.900;2022-12-18T09:16:07;38.33;;;11.45;;
17365;SDS011;8800;50.118;9.900;2022-12-18T09:18:33;29.13;;;9.75;;
17365;SDS011;8800;50.118;9.900;2022-12-18T09:21:00;36.05;;;11.02;;
17365;SDS011;8800;50.118;9.900;2022-12-18T09:23:33;35.50;;;10.00;;
17365;SDS011;8800;50.118;9.900;2022-12-18T09:25:59;33.03;;;9.57;;
17365;SDS011;8800;50.118;9.900;2022-12-18T09:28:26;24.30;;;8.95;;
17365;SDS011;8800;50.118;9.900;2022-12-18T09:30:54;30.10;;;9.48;;
17365;SDS011;8800;50.118;9.900;2022-12-18T09:33:21;43.63;;;11.80;;
17365;SDS011;8800;50.118;9.900;2022-12-18T09:35:48;28.75;;;8.82;;
17365;SDS011;8800;50.118;9.900;2022-12-18T09:38:15;35.25;;;10.68;;
17365;SDS011;8800;50.118;9.900;2022-12-18T09:40:43;38.95;;;11.23;;
17365;SDS011;8800;50.118;9.900;2022-12-18T09:43:13;38.10;;;10.43;;
17365;SDS011;8800;50.118;9.900;2022-12-18T09:45:42;35.72;;;9.30;;
17365;SDS011;8800;50.118;9.900;2022-12-18T09:48:11;34.45;;;11.25;;
17365;SDS011;8800;50.118;9.900;2022-12-18T09:50:42;42.13;;;10.30;;
17365;SDS011;8800;50.118;9.900;2022-12-18T09:53:10;33.65;;;10.27;;
17365;SDS011;8800;50.118;9.900;2022-12-18T09:55:39;38.17;;;11.27;;
17365;SDS011;8800;50.118;9.900;2022-12-18T09:58:07;39.05;;;10.55;;
17365;SDS011;8800;50.118;9.900;2022-12-18T10:00:39;38.25;;;11.45;;
17365;SDS011;8800;50.118;9.900;2022-12-18T10:03:08;37.58;;;11.00;;
17365;SDS011;8800;50.118;9.900;2022-12-18T10:05:39;33.58;;;9.68;;
17365;SDS011;8800;50.118;9.900;2022-12-18T10:08:08;41.85;;;10.40;;
17365;SDS011;8800;50.118;9.900;2022-12-18T10:10:40;35.78;;;11.45;;
17365;SDS011;8800;50.118;9.900;2022-12-18T10:13:13;36.45;;;11.07;;
17365;SDS011;8800;50.118;9.900;2022-12-18T10:15:45;45.13;;;11.75;;
17365;SDS011;8800;50.118;9.900;2022-12-18T10:18:17;31.38;;;9.73;;
17365;SDS011;8800;50.118;9.900;2022-12-18T10:20:50;42.50;;;11.65;;
17365;SDS011;8800;50.118;9.900;2022-12-18T10:23:18;40.20;;;11.43;;
17365;SDS011;8800;50.118;9.900;2022-12-18T10:25:49;41.83;;;11.18;;
17365;SDS011;8800;50.118;9.900;2022-12-18T10:28:17;44.22;;;11.82;;
17365;SDS011;8800;50.118;9.900;2022-12-18T10:30:45;39.95;;;10.68;;
17365;SDS011;8800;50.118;9.900;2022-12-18T10:33:11;47.50;;;12.43;;
17365;SDS011;8800;50.118;9.900;2022-12-18T10:35:41;33.97;;;10.70;;
17365;SDS011;8800;50.118;9.900;2022-12-18T10:38:22;36.88;;;11.00;;
17365;SDS011;8800;50.118;9.900;2022-12-18T10:40:49;40.38;;;11.57;;
17365;SDS011;8800;50.118;9.900;2022-12-18T10:43:19;50.60;;;13.35;;
17365;SDS011;8800;50.118;9.900;2022-12-18T10:45:57;52.67;;;12.55;;
17365;SDS011;8800;50.118;9.900;2022-12-18T10:48:24;53.75;;;12.52;;
17365;SDS011;8800;50.118;9.900;2022-12-18T10:50:50;42.38;;;12.32;;
17365;SDS011;8800;50.118;9.900;2022-12-18T10:53:18;41.17;;;11.30;;
17365;SDS011;8800;50.118;9.900;2022-12-18T10:55:46;40.88;;;12.38;;
17365;SDS011;8800;50.118;9.900;2022-12-18T10:58:18;46.85;;;12.82;;
17365;SDS011;8800;50.118;9.900;2022-12-18T11:00:51;45.20;;;11.68;;
17365;SDS011;8800;50.118;9.900;2022-12-18T11:03:31;43.90;;;12.18;;
17365;SDS011;8800;50.118;9.900;2022-12-18T11:06:02;54.92;;;13.82;;
17365;SDS011;8800;50.118;9.900;2022-12-18T11:08:30;53.30;;;13.20;;
17365;SDS011;8800;50.118;9.900;2022-12-18T11:10:58;48.83;;;12.55;;
17365;SDS011;8800;50.118;9.900;2022-12-18T11:13:25;52.17;;;12.93;;
17365;SDS011;8800;50.118;9.900;2022-12-18T11:15:52;42.90;;;12.25;;
17365;SDS011;8800;50.118;9.900;2022-12-18T11:18:19;41.15;;;11.63;;
17365;SDS011;8800;50.118;9.900;2022-12-18T11:20:51;50.25;;;12.02;;
17365;SDS011;8800;50.118;9.900;2022-12-18T11:23:18;45.15;;;12.60;;
17365;SDS011;8800;50.118;9.900;2022-12-18T11:25:50;49.80;;;12.23;;
17365;SDS011;8800;50.118;9.900;2022-12-18T11:28:26;46.83;;;12.32;;
17365;SDS011;8800;50.118;9.900;2022-12-18T11:31:08;38.05;;;11.95;;
17365;SDS011;8800;50.118;9.900;2022-12-18T11:33:35;40.17;;;12.65;;
17365;SDS011;8800;50.118;9.900;2022-12-18T11:36:06;43.05;;;11.23;;
17365;SDS011;8800;50.118;9.900;2022-12-18T11:38:34;49.40;;;12.27;;
17365;SDS011;8800;50.118;9.900;2022-12-18T11:41:03;43.90;;;12.43;;
17365;SDS011;8800;50.118;9.900;2022-12-18T11:43:40;42.33;;;11.43;;
17365;SDS011;8800;50.118;9.900;2022-12-18T11:46:08;42.80;;;12.63;;
17365;SDS011;8800;50.118;9.900;2022-12-18T11:48:37;46.80;;;13.85;;
17365;SDS011;8800;50.118;9.900;2022-12-18T11:51:05;46.22;;;12.57;;
17365;SDS011;8800;50.118;9.900;2022-12-18T11:53:36;43.38;;;11.27;;
17365;SDS011;8800;50.118;9.900;2022-12-18T11:56:05;44.63;;;12.15;;
17365;SDS011;8800;50.118;9.900;2022-12-18T11:58:42;39.58;;;11.35;;
17365;SDS011;8800;50.118;9.900;2022-12-18T12:01:13;45.40;;;11.30;;
17365;SDS011;8800;50.118;9.900;2022-12-18T12:03:47;43.08;;;13.55;;
17365;SDS011;8800;50.118;9.900;2022-12-18T12:06:18;47.75;;;13.20;;
17365;SDS011;8800;50.118;9.900;2022-12-18T12:08:50;47.15;;;13.07;;
17365;SDS011;8800;50.118;9.900;2022-12-18T12:11:23;54.13;;;13.43;;
17365;SDS011;8800;50.118;9.900;2022-12-18T12:13:58;42.75;;;11.15;;
17365;SDS011;8800;50.118;9.900;2022-12-18T12:16:27;50.80;;;12.75;;
17365;SDS011;8800;50.118;9.900;2022-12-18T12:19:05;50.00;;;13.77;;
17365;SDS011;8800;50.118;9.900;2022-12-18T12:21:35;44.47;;;12.65;;
17365;SDS011;8800;50.118;9.900;2022-12-18T12:24:06;47.45;;;11.98;;
17365;SDS011;8800;50.118;9.900;2022-12-18T12:26:38;45.38;;;12.60;;
17365;SDS011;8800;50.118;9.900;2022-12-18T12:29:13;44.63;;;11.95;;
17365;SDS011;8800;50.118;9.900;2022-12-18T12:31:47;44.05;;;12.48;;
17365;SDS011;8800;50.118;9.900;2022-12-18T12:34:21;49.15;;;12.65;;
17365;SDS011;8800;50.118;9.900;2022-12-18T12:36:52;43.75;;;13.80;;
17365;SDS011;8800;50.118;9.900;2022-12-18T12:39:23;63.95;;;15.60;;
17365;SDS011;8800;50.118;9.900;2022-12-18T12:41:52;44.85;;;14.07;;
17365;SDS011;8800;50.118;9.900;2022-12-18T12:44:38;45.90;;;13.18;;
17365;SDS011;8800;50.118;9.900;2022-12-18T12:47:15;49.53;;;12.40;;
17365;SDS011;8800;50.118;9.900;2022-12-18T12:49:45;40.42;;;12.35;;
17365;SDS011;8800;50.118;9.900;2022-12-18T12:52:14;47.45;;;13.13;;
17365;SDS011;8800;50.118;9.900;2022-12-18T12:54:41;47.63;;;13.15;;
17365;SDS011;8800;50.118;9.900;2022-12-18T12:57:09;41.50;;;12.65;;
17365;SDS011;8800;50.118;9.900;2022-12-18T12:59:40;46.92;;;13.80;;
17365;SDS011;8800;50.118;9.900;2022-12-18T13:02:14;43.88;;;12.32;;
17365;SDS011;8800;50.118;9.900;2022-12-18T13:04:44;42.65;;;12.57;;
17365;SDS011;8800;50.118;9.900;2022-12-18T13:07:15;44.05;;;12.57;;
17365;SDS011;8800;50.118;9.900;2022-12-18T13:12:23;42.75;;;11.32;;
17365;SDS011;8800;50.118;9.900;2022-12-18T13:15:20;37.50;;;10.10;;
17365;SDS011;8800;50.118;9.900;2022-12-18T13:17:47;42.30;;;11.18;;
17365;SDS011;8800;50.118;9.900;2022-12-18T13:20:14;54.13;;;13.55;;
17365;SDS011;8800;50.118;9.900;2022-12-18T13:22:42;41.28;;;11.73;;
17365;SDS011;8800;50.118;9.900;2022-12-18T13:27:57;48.50;;;12.82;;
17365;SDS011;8800;50.118;9.900;2022-12-18T13:30:43;41.83;;;11.90;;
17365;SDS011;8800;50.118;9.900;2022-12-18T13:36:01;39.47;;;12.05;;
17365;SDS011;8800;50.118;9.900;2022-12-18T13:38:32;40.75;;;12.90;;
17365;SDS011;8800;50.118;9.900;2022-12-18T13:40:59;41.63;;;12.38;;
17365;SDS011;8800;50.118;9.900;2022-12-18T13:43:30;44.33;;;11.85;;
17365;SDS011;8800;50.118;9.900;2022-12-18T13:48:47;39.58;;;12.07;;
17365;SDS011;8800;50.118;9.900;2022-12-18T13:51:16;40.97;;;10.73;;
17365;SDS011;8800;50.118;9.900;2022-12-18T13:53:43;49.22;;;14.07;;
17365;SDS011;8800;50.118;9.900;2022-12-18T13:56:14;39.47;;;11.50;;
17365;SDS011;8800;50.118;9.900;2022-12-18T13:58:44;30.23;;;10.00;;
17365;SDS011;8800;50.118;9.900;2022-12-18T14:01:21;45.15;;;12.75;;
17365;SDS011;8800;50.118;9.900;2022-12-18T14:03:49;37.13;;;12.32;;
17365;SDS011;8800;50.118;9.900;2022-12-18T14:06:15;40.80;;;11.27;;
17365;SDS011;8800;50.118;9.900;2022-12-18T14:08:43;38.47;;;11.07;;
17365;SDS011;8800;50.118;9.900;2022-12-18T14:11:18;39.45;;;12.43;;
17365;SDS011;8800;50.118;9.900;2022-12-18T14:13:45;39.83;;;11.60;;
17365;SDS011;8800;50.118;9.900;2022-12-18T14:16:13;42.97;;;11.55;;
17365;SDS011;8800;50.118;9.900;2022-12-18T14:18:42;47.40;;;12.70;;
17365;SDS011;8800;50.118;9.900;2022-12-18T14:21:17;36.70;;;11.73;;
17365;SDS011;8800;50.118;9.900;2022-12-18T14:23:44;40.83;;;11.80;;
17365;SDS011;8800;50.118;9.900;2022-12-18T14:26:21;41.10;;;12.20;;
17365;SDS011;8800;50.118;9.900;2022-12-18T14:28:48;37.13;;;11.82;;
17365;SDS011;8800;50.118;9.900;2022-12-18T14:31:18;42.95;;;13.02;;
17365;SDS011;8800;50.118;9.900;2022-12-18T14:33:45;44.55;;;14.15;;
17365;SDS011;8800;50.118;9.900;2022-12-18T14:36:13;41.40;;;12.90;;
17365;SDS011;8800;50.118;9.900;2022-12-18T14:38:42;42.92;;;12.98;;
17365;SDS011;8800;50.118;9.900;2022-12-18T14:41:10;38.30;;;12.70;;
17365;SDS011;8800;50.118;9.900;2022-12-18T14:43:38;43.72;;;12.93;;
17365;SDS011;8800;50.118;9.900;2022-12-18T14:46:05;43.47;;;13.32;;
17365;SDS011;8800;50.118;9.900;2022-12-18T14:48:34;39.90;;;12.35;;
17365;SDS011;8800;50.118;9.900;2022-12-18T14:51:02;44.35;;;13.43;;
17365;SDS011;8800;50.118;9.900;2022-12-18T14:53:32;47.42;;;12.60;;
17365;SDS011;8800;50.118;9.900;2022-12-18T14:56:01;44.38;;;13.57;;
17365;SDS011;8800;50.118;9.900;2022-12-18T14:58:28;43.65;;;13.68;;
17365;SDS011;8800;50.118;9.900;2022-12-18T15:01:05;47.72;;;15.15;;